sensor_id;sensor_type;location;lat;lon;timestamp;P1;durP1;ratioP1;P2;durP2;ratioP2
7045;SDS011;3564;53.326;10.356;2023-06-22T00:02:15;5.83;;;4.20;;
7045;SDS011;3564;53.326;10.356;2023-06-22T00:04:44;5.33;;;4.40;;
7045;SDS011;3564;53.326;10.356;2023-06-22T00:07:10;5.97;;;4.30;;
7045;SDS011;3564;53.326;10.356;2023-06-22T00:09:35;5.13;;;4.57;;
7045;SDS011;3564;53.326;10.356;2023-06-22T00:12:01;5.73;;;4.27;;
7045;SDS011;3564;53.326;10.356;2023-06-22T00:14:27;4.60;;;4.20;;
7045;SDS011;3564;53.326;10.356;2023-06-22T00:16:53;4.90;;;4.40;;
7045;SDS011;3564;53.326;10.356;2023-06-22T00:19:23;5.60;;;4.40;;
7045;SDS011;3564;53.326;10.356;2023-06-22T00:21:52;4.93;;;4.43;;
7045;SDS011;3564;53.326;10.356;2023-06-22T00:24:25;5.03;;;4.53;;
7045;SDS011;3564;53.326;10.356;2023-06-22T00:26:50;5.00;;;4.43;;
7045;SDS011;3564;53.326;10.356;2023-06-22T00:29:16;5.30;;;4.27;;
7045;SDS011;3564;53.326;10.356;2023-06-22T00:31:43;5.57;;;4.63;;
7045;SDS011;3564;53.326;10.356;2023-06-22T00:34:12;4.93;;;4.53;;
7045;SDS011;3564;53.326;10.356;2023-06-22T00:36:40;4.67;;;4.20;;
7045;SDS011;3564;53.326;10.356;2023-06-22T00:39:06;7.40;;;4.73;;
7045;SDS011;3564;53.326;10.356;2023-06-22T00:41:32;5.07;;;4.57;;
7045;SDS011;3564;53.326;10.356;2023-06-22T00:44:01;5.03;;;4.50;;
7045;SDS011;3564;53.326;10.356;2023-06-22T00:46:26;4.83;;;4.37;;
7045;SDS011;3564;53.326;10.356;2023-06-22T00:48:55;4.77;;;4.23;;
7045;SDS011;3564;53.326;10.356;2023-06-22T00:51:22;4.93;;;4.43;;
7045;SDS011;3564;53.326;10.356;2023-06-22T00:53:49;4.63;;;4.23;;
7045;SDS011;3564;53.326;10.356;2023-06-22T00:56:16;5.53;;;4.67;;
7045;SDS011;3564;53.326;10.356;2023-06-22T00:58:44;4.60;;;3.90;;
7045;SDS011;3564;53.326;10.356;2023-06-22T01:01:12;7.57;;;4.30;;
7045;SDS011;3564;53.326;10.356;2023-06-22T01:03:39;5.37;;;4.50;;
7045;SDS011;3564;53.326;10.356;2023-06-22T01:06:09;5.10;;;4.03;;
7045;SDS011;3564;53.326;10.356;2023-06-22T01:08:46;4.20;;;3.80;;
7045;SDS011;3564;53.326;10.356;2023-06-22T01:11:26;5.17;;;4.17;;
7045;SDS011;3564;53.326;10.356;2023-06-22T01:14:00;5.93;;;4.07;;
7045;SDS011;3564;53.326;10.356;2023-06-22T01:16:33;4.77;;;4.27;;
7045;SDS011;3564;53.326;10.356;2023-06-22T01:19:01;4.63;;;4.23;;
7045;SDS011;3564;53.326;10.356;2023-06-22T01:21:52;4.80;;;4.27;;
7045;SDS011;3564;53.326;10.356;2023-06-22T01:29:57;4.70;;;4.30;;
7045;SDS011;3564;53.326;10.356;2023-06-22T01:32:29;5.10;;;4.60;;
7045;SDS011;3564;53.326;10.356;2023-06-22T01:34:57;5.27;;;4.40;;
7045;SDS011;3564;53.326;10.356;2023-06-22T01:37:24;4.80;;;4.30;;
7045;SDS011;3564;53.326;10.356;2023-06-22T01:39:54;4.80;;;4.37;;
7045;SDS011;3564;53.326;10.356;2023-06-22T01:42:23;5.07;;;4.60;;
7045;SDS011;3564;53.326;10.356;2023-06-22T01:44:50;4.73;;;4.33;;
7045;SDS011;3564;53.326;10.356;2023-06-22T01:47:17;5.07;;;4.67;;
7045;SDS011;3564;53.326;10.356;2023-06-22T01:49:43;5.23;;;4.77;;
7045;SDS011;3564;53.326;10.356;2023-06-22T01:52:13;4.90;;;4.47;;
7045;SDS011;3564;53.326;10.356;2023-06-22T01:54:43;5.40;;;4.90;;
7045;SDS011;3564;53.326;10.356;2023-06-22T01:57:08;5.53;;;5.03;;
7045;SDS011;3564;53.326;10.356;2023-06-22T01:59:37;5.63;;;4.60;;
7045;SDS011;3564;53.326;10.356;2023-06-22T02:02:09;6.00;;;4.50;;
7045;SDS011;3564;53.326;10.356;2023-06-22T02:07:12;4.83;;;4.03;;
7045;SDS011;3564;53.326;10.356;2023-06-22T02:09:42;4.93;;;4.37;;
7045;SDS011;3564;53.326;10.356;2023-06-22T02:12:09;6.07;;;4.50;;
7045;SDS011;3564;53.326;10.356;2023-06-22T02:14:44;5.70;;;5.00;;
7045;SDS011;3564;53.326;10.356;2023-06-22T02:17:17;6.33;;;4.83;;
7045;SDS011;3564;53.326;10.356;2023-06-22T02:19:43;5.57;;;4.90;;
7045;SDS011;3564;53.326;10.356;2023-06-22T02:22:09;5.17;;;4.77;;
7045;SDS011;3564;53.326;10.356;2023-06-22T02:24:35;5.73;;;5.23;;
7045;SDS011;3564;53.326;10.356;2023-06-22T02:27:01;5.40;;;4.90;;
7045;SDS011;3564;53.326;10.356;2023-06-22T02:29:27;5.33;;;4.83;;
7045;SDS011;3564;53.326;10.356;2023-06-22T02:31:53;7.30;;;4.63;;
7045;SDS011;3564;53.326;10.356;2023-06-22T02:34:19;6.23;;;4.70;;
7045;SDS011;3564;53.326;10.356;2023-06-22T02:36:46;5.63;;;4.40;;
7045;SDS011;3564;53.326;10.356;2023-06-22T02:39:21;5.97;;;5.27;;
7045;SDS011;3564;53.326;10.356;2023-06-22T02:41:50;7.47;;;5.87;;
7045;SDS011;3564;53.326;10.356;2023-06-22T02:44:23;5.80;;;5.30;;
7045;SDS011;3564;53.326;10.356;2023-06-22T02:46:49;7.20;;;5.60;;
7045;SDS011;3564;53.326;10.356;2023-06-22T02:49:17;5.03;;;4.63;;
7045;SDS011;3564;53.326;10.356;2023-06-22T02:51:46;5.03;;;4.37;;
7045;SDS011;3564;53.326;10.356;2023-06-22T02:54:12;5.27;;;4.87;;
7045;SDS011;3564;53.326;10.356;2023-06-22T02:56:38;5.43;;;4.90;;
7045;SDS011;3564;53.326;10.356;2023-06-22T02:59:08;5.70;;;4.70;;
7045;SDS011;3564;53.326;10.356;2023-06-22T03:01:35;6.37;;;4.97;;
7045;SDS011;3564;53.326;10.356;2023-06-22T03:04:05;5.70;;;4.93;;
7045;SDS011;3564;53.326;10.356;2023-06-22T03:06:32;6.20;;;4.80;;
7045;SDS011;3564;53.326;10.356;2023-06-22T03:09:01;6.00;;;4.87;;
7045;SDS011;3564;53.326;10.356;2023-06-22T03:11:29;4.73;;;4.33;;
7045;SDS011;3564;53.326;10.356;2023-06-22T03:14:01;4.90;;;4.50;;
7045;SDS011;3564;53.326;10.356;2023-06-22T03:16:27;5.80;;;5.00;;
7045;SDS011;3564;53.326;10.356;2023-06-22T03:18:53;6.17;;;4.70;;
7045;SDS011;3564;53.326;10.356;2023-06-22T03:21:18;6.13;;;4.67;;
7045;SDS011;3564;53.326;10.356;2023-06-22T03:23:48;7.37;;;5.10;;
7045;SDS011;3564;53.326;10.356;2023-06-22T03:26:16;6.53;;;5.33;;
7045;SDS011;3564;53.326;10.356;2023-06-22T03:28:42;5.70;;;5.13;;
7045;SDS011;3564;53.326;10.356;2023-06-22T03:31:11;5.10;;;4.60;;
7045;SDS011;3564;53.326;10.356;2023-06-22T03:33:36;6.17;;;5.30;;
7045;SDS011;3564;53.326;10.356;2023-06-22T03:36:05;5.67;;;5.10;;
7045;SDS011;3564;53.326;10.356;2023-06-22T03:38:31;6.17;;;5.53;;
7045;SDS011;3564;53.326;10.356;2023-06-22T03:41:00;6.20;;;5.60;;
7045;SDS011;3564;53.326;10.356;2023-06-22T03:43:28;7.07;;;5.37;;
7045;SDS011;3564;53.326;10.356;2023-06-22T03:46:00;6.30;;;5.70;;
7045;SDS011;3564;53.326;10.356;2023-06-22T03:48:26;6.67;;;5.90;;
7045;SDS011;3564;53.326;10.356;2023-06-22T03:50:51;7.27;;;5.60;;
7045;SDS011;3564;53.326;10.356;2023-06-22T03:53:17;6.03;;;5.43;;
7045;SDS011;3564;53.326;10.356;2023-06-22T03:55:50;5.93;;;5.33;;
7045;SDS011;3564;53.326;10.356;2023-06-22T03:58:18;6.37;;;5.77;;
7045;SDS011;3564;53.326;10.356;2023-06-22T04:00:45;6.10;;;5.33;;
7045;SDS011;3564;53.326;10.356;2023-06-22T04:03:16;6.37;;;5.43;;
7045;SDS011;3564;53.326;10.356;2023-06-22T04:05:45;6.17;;;5.57;;
7045;SDS011;3564;53.326;10.356;2023-06-22T04:08:12;6.20;;;5.23;;
7045;SDS011;3564;53.326;10.356;2023-06-22T04:10:38;5.70;;;5.20;;
7045;SDS011;3564;53.326;10.356;2023-06-22T04:13:04;5.57;;;4.93;;
7045;SDS011;3564;53.326;10.356;2023-06-22T04:15:29;7.67;;;6.00;;
7045;SDS011;3564;53.326;10.356;2023-06-22T04:17:55;7.33;;;6.00;;
7045;SDS011;3564;53.326;10.356;2023-06-22T04:20:27;6.30;;;5.70;;
7045;SDS011;3564;53.326;10.356;2023-06-22T04:22:55;6.67;;;6.03;;
7045;SDS011;3564;53.326;10.356;2023-06-22T04:25:21;7.03;;;5.60;;
7045;SDS011;3564;53.326;10.356;2023-06-22T04:27:47;6.90;;;5.87;;
7045;SDS011;3564;53.326;10.356;2023-06-22T04:30:16;9.33;;;6.40;;
7045;SDS011;3564;53.326;10.356;2023-06-22T04:32:42;7.43;;;5.87;;
7045;SDS011;3564;53.326;10.356;2023-06-22T04:35:09;7.90;;;5.80;;
7045;SDS011;3564;53.326;10.356;2023-06-22T04:37:35;7.43;;;5.73;;
7045;SDS011;3564;53.326;10.356;2023-06-22T04:40:00;9.10;;;6.20;;
7045;SDS011;3564;53.326;10.356;2023-06-22T04:42:29;9.03;;;7.30;;
7045;SDS011;3564;53.326;10.356;2023-06-22T04:44:55;8.50;;;7.60;;
7045;SDS011;3564;53.326;10.356;2023-06-22T04:47:30;8.00;;;7.30;;
7045;SDS011;3564;53.326;10.356;2023-06-22T04:50:01;7.97;;;7.17;;
7045;SDS011;3564;53.326;10.356;2023-06-22T04:52:30;7.83;;;7.10;;
7045;SDS011;3564;53.326;10.356;2023-06-22T04:54:56;10.77;;;7.90;;
7045;SDS011;3564;53.326;10.356;2023-06-22T04:57:22;7.33;;;6.60;;
7045;SDS011;3564;53.326;10.356;2023-06-22T04:59:59;7.80;;;7.00;;
7045;SDS011;3564;53.326;10.356;2023-06-22T05:02:38;7.37;;;6.70;;
7045;SDS011;3564;53.326;10.356;2023-06-22T05:05:04;7.47;;;6.77;;
7045;SDS011;3564;53.326;10.356;2023-06-22T05:07:32;7.53;;;6.83;;
7045;SDS011;3564;53.326;10.356;2023-06-22T05:09:58;7.80;;;7.10;;
7045;SDS011;3564;53.326;10.356;2023-06-22T05:12:24;7.70;;;6.90;;
7045;SDS011;3564;53.326;10.356;2023-06-22T05:14:50;7.73;;;6.93;;
7045;SDS011;3564;53.326;10.356;2023-06-22T05:17:19;8.07;;;6.87;;
7045;SDS011;3564;53.326;10.356;2023-06-22T05:19:44;8.80;;;6.30;;
7045;SDS011;3564;53.326;10.356;2023-06-22T05:22:16;6.87;;;6.17;;
7045;SDS011;3564;53.326;10.356;2023-06-22T05:24:45;7.47;;;6.77;;
7045;SDS011;3564;53.326;10.356;2023-06-22T05:27:11;9.70;;;7.70;;
7045;SDS011;3564;53.326;10.356;2023-06-22T05:29:37;13.13;;;7.10;;
7045;SDS011;3564;53.326;10.356;2023-06-22T05:32:02;7.97;;;7.13;;
7045;SDS011;3564;53.326;10.356;2023-06-22T05:34:28;10.30;;;7.27;;
7045;SDS011;3564;53.326;10.356;2023-06-22T05:36:54;7.80;;;7.00;;
7045;SDS011;3564;53.326;10.356;2023-06-22T05:39:19;8.23;;;7.23;;
7045;SDS011;3564;53.326;10.356;2023-06-22T05:41:48;7.53;;;6.73;;
7045;SDS011;3564;53.326;10.356;2023-06-22T05:44:13;8.63;;;6.83;;
7045;SDS011;3564;53.326;10.356;2023-06-22T05:46:43;8.37;;;6.63;;
7045;SDS011;3564;53.326;10.356;2023-06-22T05:49:09;9.27;;;6.93;;
7045;SDS011;3564;53.326;10.356;2023-06-22T05:51:36;11.00;;;6.73;;
7045;SDS011;3564;53.326;10.356;2023-06-22T05:54:02;8.50;;;6.40;;
7045;SDS011;3564;53.326;10.356;2023-06-22T05:56:27;8.60;;;6.07;;
7045;SDS011;3564;53.326;10.356;2023-06-22T05:58:53;8.13;;;6.20;;
7045;SDS011;3564;53.326;10.356;2023-06-22T06:01:18;6.77;;;5.90;;
7045;SDS011;3564;53.326;10.356;2023-06-22T06:03:45;8.77;;;5.70;;
7045;SDS011;3564;53.326;10.356;2023-06-22T06:06:13;9.27;;;5.53;;
7045;SDS011;3564;53.326;10.356;2023-06-22T06:08:42;6.17;;;5.57;;
7045;SDS011;3564;53.326;10.356;2023-06-22T06:11:07;11.17;;;5.40;;
7045;SDS011;3564;53.326;10.356;2023-06-22T06:13:33;7.13;;;5.20;;
7045;SDS011;3564;53.326;10.356;2023-06-22T06:15:58;7.77;;;5.30;;
7045;SDS011;3564;53.326;10.356;2023-06-22T06:18:24;8.07;;;5.23;;
7045;SDS011;3564;53.326;10.356;2023-06-22T06:20:50;7.13;;;5.93;;
7045;SDS011;3564;53.326;10.356;2023-06-22T06:23:15;11.77;;;5.33;;
7045;SDS011;3564;53.326;10.356;2023-06-22T06:25:41;7.70;;;5.23;;
7045;SDS011;3564;53.326;10.356;2023-06-22T06:28:07;5.30;;;4.73;;
7045;SDS011;3564;53.326;10.356;2023-06-22T06:30:32;5.37;;;4.53;;
7045;SDS011;3564;53.326;10.356;2023-06-22T06:32:58;5.83;;;4.70;;
7045;SDS011;3564;53.326;10.356;2023-06-22T06:35:26;8.33;;;5.83;;
7045;SDS011;3564;53.326;10.356;2023-06-22T06:37:52;5.27;;;4.73;;
7045;SDS011;3564;53.326;10.356;2023-06-22T06:40:18;5.83;;;5.07;;
7045;SDS011;3564;53.326;10.356;2023-06-22T06:42:44;9.57;;;5.60;;
7045;SDS011;3564;53.326;10.356;2023-06-22T06:45:11;5.43;;;4.87;;
7045;SDS011;3564;53.326;10.356;2023-06-22T06:47:38;6.93;;;5.00;;
7045;SDS011;3564;53.326;10.356;2023-06-22T06:50:04;10.20;;;5.17;;
7045;SDS011;3564;53.326;10.356;2023-06-22T06:52:37;5.40;;;4.90;;
7045;SDS011;3564;53.326;10.356;2023-06-22T06:55:06;6.50;;;4.87;;
7045;SDS011;3564;53.326;10.356;2023-06-22T06:57:43;6.03;;;5.03;;
7045;SDS011;3564;53.326;10.356;2023-06-22T07:00:09;4.97;;;4.43;;
7045;SDS011;3564;53.326;10.356;2023-06-22T07:02:38;8.20;;;4.60;;
7045;SDS011;3564;53.326;10.356;2023-06-22T07:05:05;5.67;;;4.53;;
7045;SDS011;3564;53.326;10.356;2023-06-22T07:07:31;7.63;;;4.80;;
7045;SDS011;3564;53.326;10.356;2023-06-22T07:10:00;8.17;;;4.20;;
7045;SDS011;3564;53.326;10.356;2023-06-22T07:12:26;5.50;;;5.00;;
7045;SDS011;3564;53.326;10.356;2023-06-22T07:14:52;5.27;;;4.37;;
7045;SDS011;3564;53.326;10.356;2023-06-22T07:17:18;6.57;;;5.10;;
7045;SDS011;3564;53.326;10.356;2023-06-22T07:19:46;4.90;;;4.47;;
7045;SDS011;3564;53.326;10.356;2023-06-22T07:22:12;6.57;;;4.70;;
7045;SDS011;3564;53.326;10.356;2023-06-22T07:24:37;5.20;;;4.27;;
7045;SDS011;3564;53.326;10.356;2023-06-22T07:27:03;5.27;;;4.30;;
7045;SDS011;3564;53.326;10.356;2023-06-22T07:29:31;6.97;;;4.37;;
7045;SDS011;3564;53.326;10.356;2023-06-22T07:31:57;5.87;;;4.67;;
7045;SDS011;3564;53.326;10.356;2023-06-22T07:34:22;7.33;;;4.30;;
7045;SDS011;3564;53.326;10.356;2023-06-22T07:36:48;10.43;;;4.97;;
7045;SDS011;3564;53.326;10.356;2023-06-22T07:39:14;7.43;;;4.50;;
7045;SDS011;3564;53.326;10.356;2023-06-22T07:41:39;5.83;;;4.50;;
7045;SDS011;3564;53.326;10.356;2023-06-22T07:44:11;6.57;;;4.35;;
7045;SDS011;3564;53.326;10.356;2023-06-22T07:46:37;4.83;;;4.00;;
7045;SDS011;3564;53.326;10.356;2023-06-22T07:49:02;5.03;;;4.13;;
7045;SDS011;3564;53.326;10.356;2023-06-22T07:51:34;4.50;;;3.97;;
7045;SDS011;3564;53.326;10.356;2023-06-22T07:54:09;5.07;;;3.63;;
7045;SDS011;3564;53.326;10.356;2023-06-22T07:56:36;4.45;;;4.05;;
7045;SDS011;3564;53.326;10.356;2023-06-22T07:59:01;5.17;;;3.80;;
7045;SDS011;3564;53.326;10.356;2023-06-22T08:01:28;4.80;;;3.10;;
7045;SDS011;3564;53.326;10.356;2023-06-22T08:03:54;3.90;;;3.20;;
7045;SDS011;3564;53.326;10.356;2023-06-22T08:06:20;4.88;;;3.42;;
7045;SDS011;3564;53.326;10.356;2023-06-22T08:08:45;4.80;;;2.87;;
7045;SDS011;3564;53.326;10.356;2023-06-22T08:11:13;6.18;;;3.30;;
7045;SDS011;3564;53.326;10.356;2023-06-22T08:13:42;5.00;;;2.70;;
7045;SDS011;3564;53.326;10.356;2023-06-22T08:16:07;3.57;;;2.87;;
7045;SDS011;3564;53.326;10.356;2023-06-22T08:18:33;3.40;;;2.80;;
7045;SDS011;3564;53.326;10.356;2023-06-22T08:20:58;5.73;;;2.60;;
7045;SDS011;3564;53.326;10.356;2023-06-22T08:23:24;3.88;;;2.80;;
7045;SDS011;3564;53.326;10.356;2023-06-22T08:25:56;3.67;;;2.65;;
7045;SDS011;3564;53.326;10.356;2023-06-22T08:28:21;3.80;;;2.80;;
7045;SDS011;3564;53.326;10.356;2023-06-22T08:30:47;3.83;;;3.20;;
7045;SDS011;3564;53.326;10.356;2023-06-22T08:33:12;3.60;;;3.03;;
7045;SDS011;3564;53.326;10.356;2023-06-22T08:35:38;3.35;;;2.95;;
7045;SDS011;3564;53.326;10.356;2023-06-22T08:38:04;3.97;;;2.97;;
7045;SDS011;3564;53.326;10.356;2023-06-22T08:40:32;4.13;;;2.88;;
7045;SDS011;3564;53.326;10.356;2023-06-22T08:42:58;4.13;;;2.85;;
7045;SDS011;3564;53.326;10.356;2023-06-22T08:45:23;4.78;;;3.15;;
7045;SDS011;3564;53.326;10.356;2023-06-22T08:47:52;3.65;;;2.60;;
7045;SDS011;3564;53.326;10.356;2023-06-22T08:50:18;3.05;;;2.65;;
7045;SDS011;3564;53.326;10.356;2023-06-22T08:52:46;3.70;;;2.60;;
7045;SDS011;3564;53.326;10.356;2023-06-22T08:55:12;4.90;;;3.25;;
7045;SDS011;3564;53.326;10.356;2023-06-22T08:57:39;4.10;;;3.15;;
7045;SDS011;3564;53.326;10.356;2023-06-22T09:00:06;4.63;;;3.08;;
7045;SDS011;3564;53.326;10.356;2023-06-22T09:02:41;5.03;;;3.13;;
7045;SDS011;3564;53.326;10.356;2023-06-22T09:05:06;3.88;;;3.03;;
7045;SDS011;3564;53.326;10.356;2023-06-22T09:07:32;3.92;;;3.53;;
7045;SDS011;3564;53.326;10.356;2023-06-22T09:09:59;3.45;;;3.15;;
7045;SDS011;3564;53.326;10.356;2023-06-22T09:12:25;4.25;;;2.85;;
7045;SDS011;3564;53.326;10.356;2023-06-22T09:14:52;3.50;;;3.17;;
7045;SDS011;3564;53.326;10.356;2023-06-22T09:17:18;3.50;;;3.08;;
7045;SDS011;3564;53.326;10.356;2023-06-22T09:19:44;6.65;;;3.25;;
7045;SDS011;3564;53.326;10.356;2023-06-22T09:22:09;3.70;;;3.08;;
7045;SDS011;3564;53.326;10.356;2023-06-22T09:24:35;4.65;;;3.17;;
7045;SDS011;3564;53.326;10.356;2023-06-22T09:27:00;5.75;;;2.58;;
7045;SDS011;3564;53.326;10.356;2023-06-22T09:29:26;3.05;;;2.80;;
7045;SDS011;3564;53.326;10.356;2023-06-22T09:31:51;4.85;;;3.33;;
7045;SDS011;3564;53.326;10.356;2023-06-22T09:34:20;4.93;;;3.70;;
7045;SDS011;3564;53.326;10.356;2023-06-22T09:36:46;2.90;;;2.70;;
7045;SDS011;3564;53.326;10.356;2023-06-22T09:39:12;5.78;;;2.85;;
7045;SDS011;3564;53.326;10.356;2023-06-22T09:41:41;4.13;;;3.30;;
7045;SDS011;3564;53.326;10.356;2023-06-22T09:44:06;4.10;;;3.70;;
7045;SDS011;3564;53.326;10.356;2023-06-22T09:46:32;7.63;;;3.90;;
7045;SDS011;3564;53.326;10.356;2023-06-22T09:48:57;3.50;;;3.13;;
7045;SDS011;3564;53.326;10.356;2023-06-22T09:51:23;6.18;;;3.80;;
7045;SDS011;3564;53.326;10.356;2023-06-22T09:53:55;3.97;;;3.30;;
7045;SDS011;3564;53.326;10.356;2023-06-22T09:56:20;4.97;;;3.40;;
7045;SDS011;3564;53.326;10.356;2023-06-22T09:58:49;3.63;;;3.05;;
7045;SDS011;3564;53.326;10.356;2023-06-22T10:01:17;4.82;;;3.10;;
7045;SDS011;3564;53.326;10.356;2023-06-22T10:03:43;5.45;;;3.80;;
7045;SDS011;3564;53.326;10.356;2023-06-22T10:06:08;4.35;;;3.55;;
7045;SDS011;3564;53.326;10.356;2023-06-22T10:08:34;3.90;;;2.97;;
7045;SDS011;3564;53.326;10.356;2023-06-22T10:11:00;4.07;;;3.38;;
7045;SDS011;3564;53.326;10.356;2023-06-22T10:13:31;3.70;;;3.30;;
7045;SDS011;3564;53.326;10.356;2023-06-22T10:16:00;3.67;;;3.20;;
7045;SDS011;3564;53.326;10.356;2023-06-22T10:18:26;4.50;;;3.13;;
7045;SDS011;3564;53.326;10.356;2023-06-22T10:20:51;5.55;;;3.50;;
7045;SDS011;3564;53.326;10.356;2023-06-22T10:23:17;6.10;;;3.60;;
7045;SDS011;3564;53.326;10.356;2023-06-22T10:25:44;4.05;;;3.17;;
7045;SDS011;3564;53.326;10.356;2023-06-22T10:28:12;4.55;;;3.30;;
7045;SDS011;3564;53.326;10.356;2023-06-22T10:30:45;10.02;;;3.78;;
7045;SDS011;3564;53.326;10.356;2023-06-22T10:33:11;4.38;;;3.22;;
7045;SDS011;3564;53.326;10.356;2023-06-22T10:35:43;5.35;;;3.70;;
7045;SDS011;3564;53.326;10.356;2023-06-22T10:38:09;6.30;;;3.70;;
7045;SDS011;3564;53.326;10.356;2023-06-22T10:40:37;3.90;;;3.60;;
7045;SDS011;3564;53.326;10.356;2023-06-22T10:43:04;5.13;;;3.50;;
7045;SDS011;3564;53.326;10.356;2023-06-22T10:45:30;4.15;;;3.75;;
7045;SDS011;3564;53.326;10.356;2023-06-22T10:47:55;3.70;;;3.40;;
7045;SDS011;3564;53.326;10.356;2023-06-22T10:50:21;5.00;;;3.83;;
7045;SDS011;3564;53.326;10.356;2023-06-22T10:52:49;5.47;;;3.83;;
7045;SDS011;3564;53.326;10.356;2023-06-22T10:55:14;6.05;;;3.67;;
7045;SDS011;3564;53.326;10.356;2023-06-22T10:57:40;4.75;;;3.53;;
7045;SDS011;3564;53.326;10.356;2023-06-22T11:00:11;3.95;;;3.58;;
7045;SDS011;3564;53.326;10.356;2023-06-22T11:02:37;5.13;;;3.90;;
7045;SDS011;3564;53.326;10.356;2023-06-22T11:05:03;4.03;;;3.63;;
7045;SDS011;3564;53.326;10.356;2023-06-22T11:07:29;4.32;;;3.92;;
7045;SDS011;3564;53.326;10.356;2023-06-22T11:09:55;4.05;;;3.50;;
7045;SDS011;3564;53.326;10.356;2023-06-22T11:12:20;4.68;;;3.90;;
7045;SDS011;3564;53.326;10.356;2023-06-22T11:14:46;4.10;;;3.60;;
7045;SDS011;3564;53.326;10.356;2023-06-22T11:17:12;4.53;;;3.33;;
7045;SDS011;3564;53.326;10.356;2023-06-22T11:19:37;3.78;;;3.40;;
7045;SDS011;3564;53.326;10.356;2023-06-22T11:22:06;4.60;;;3.50;;
7045;SDS011;3564;53.326;10.356;2023-06-22T11:24:31;6.30;;;3.72;;
7045;SDS011;3564;53.326;10.356;2023-06-22T11:27:00;9.68;;;4.28;;
7045;SDS011;3564;53.326;10.356;2023-06-22T11:29:25;6.35;;;3.67;;
7045;SDS011;3564;53.326;10.356;2023-06-22T11:31:51;6.22;;;3.60;;
7045;SDS011;3564;53.326;10.356;2023-06-22T11:34:22;6.80;;;3.88;;
7045;SDS011;3564;53.326;10.356;2023-06-22T11:36:48;8.85;;;3.75;;
7045;SDS011;3564;53.326;10.356;2023-06-22T11:39:14;4.20;;;3.80;;
7045;SDS011;3564;53.326;10.356;2023-06-22T11:41:40;4.18;;;3.50;;
7045;SDS011;3564;53.326;10.356;2023-06-22T11:44:06;3.97;;;3.53;;
7045;SDS011;3564;53.326;10.356;2023-06-22T11:46:32;8.45;;;4.10;;
7045;SDS011;3564;53.326;10.356;2023-06-22T11:48:58;4.20;;;3.88;;
7045;SDS011;3564;53.326;10.356;2023-06-22T11:51:23;5.90;;;4.00;;
7045;SDS011;3564;53.326;10.356;2023-06-22T11:53:49;4.18;;;3.80;;
7045;SDS011;3564;53.326;10.356;2023-06-22T11:56:15;5.20;;;3.60;;
7045;SDS011;3564;53.326;10.356;2023-06-22T11:58:40;8.48;;;4.05;;
7045;SDS011;3564;53.326;10.356;2023-06-22T12:01:06;6.55;;;4.05;;
7045;SDS011;3564;53.326;10.356;2023-06-22T12:03:31;4.05;;;3.70;;
7045;SDS011;3564;53.326;10.356;2023-06-22T12:05:57;5.13;;;3.78;;
7045;SDS011;3564;53.326;10.356;2023-06-22T12:08:27;4.85;;;4.45;;
7045;SDS011;3564;53.326;10.356;2023-06-22T12:10:53;5.65;;;4.50;;
7045;SDS011;3564;53.326;10.356;2023-06-22T12:13:19;4.80;;;4.30;;
7045;SDS011;3564;53.326;10.356;2023-06-22T12:15:47;5.82;;;4.15;;
7045;SDS011;3564;53.326;10.356;2023-06-22T12:18:13;6.28;;;4.32;;
7045;SDS011;3564;53.326;10.356;2023-06-22T12:20:43;4.90;;;4.47;;
7045;SDS011;3564;53.326;10.356;2023-06-22T12:23:08;7.93;;;4.38;;
7045;SDS011;3564;53.326;10.356;2023-06-22T12:25:34;6.53;;;4.10;;
7045;SDS011;3564;53.326;10.356;2023-06-22T12:27:59;5.75;;;4.60;;
7045;SDS011;3564;53.326;10.356;2023-06-22T12:30:25;5.18;;;4.15;;
7045;SDS011;3564;53.326;10.356;2023-06-22T12:32:50;4.88;;;4.38;;
7045;SDS011;3564;53.326;10.356;2023-06-22T12:35:16;4.72;;;4.20;;
7045;SDS011;3564;53.326;10.356;2023-06-22T12:37:42;5.05;;;3.88;;
7045;SDS011;3564;53.326;10.356;2023-06-22T12:40:11;4.70;;;4.05;;
7045;SDS011;3564;53.326;10.356;2023-06-22T12:42:36;4.53;;;4.10;;
7045;SDS011;3564;53.326;10.356;2023-06-22T12:45:02;4.82;;;4.43;;
7045;SDS011;3564;53.326;10.356;2023-06-22T12:47:28;5.30;;;4.25;;
7045;SDS011;3564;53.326;10.356;2023-06-22T12:49:53;11.77;;;5.30;;
7045;SDS011;3564;53.326;10.356;2023-06-22T12:52:19;8.30;;;5.13;;
7045;SDS011;3564;53.326;10.356;2023-06-22T12:54:44;8.45;;;4.50;;
7045;SDS011;3564;53.326;10.356;2023-06-22T12:57:13;5.22;;;4.40;;
7045;SDS011;3564;53.326;10.356;2023-06-22T12:59:38;4.90;;;4.43;;
7045;SDS011;3564;53.326;10.356;2023-06-22T13:02:04;6.15;;;4.35;;
7045;SDS011;3564;53.326;10.356;2023-06-22T13:04:30;5.32;;;4.10;;
7045;SDS011;3564;53.326;10.356;2023-06-22T13:07:05;8.13;;;4.40;;
7045;SDS011;3564;53.326;10.356;2023-06-22T13:09:31;4.82;;;4.13;;
7045;SDS011;3564;53.326;10.356;2023-06-22T13:11:57;7.47;;;4.40;;
7045;SDS011;3564;53.326;10.356;2023-06-22T13:14:22;5.07;;;4.57;;
7045;SDS011;3564;53.326;10.356;2023-06-22T13:16:49;4.95;;;4.45;;
7045;SDS011;3564;53.326;10.356;2023-06-22T13:19:14;5.18;;;3.92;;
7045;SDS011;3564;53.326;10.356;2023-06-22T13:21:40;5.70;;;4.50;;
7045;SDS011;3564;53.326;10.356;2023-06-22T13:24:06;6.40;;;4.43;;
7045;SDS011;3564;53.326;10.356;2023-06-22T13:26:31;5.35;;;4.60;;
7045;SDS011;3564;53.326;10.356;2023-06-22T13:28:57;6.03;;;4.10;;
7045;SDS011;3564;53.326;10.356;2023-06-22T13:31:23;5.00;;;4.50;;
7045;SDS011;3564;53.326;10.356;2023-06-22T13:33:48;5.40;;;4.90;;
7045;SDS011;3564;53.326;10.356;2023-06-22T13:36:19;6.50;;;4.60;;
7045;SDS011;3564;53.326;10.356;2023-06-22T13:38:46;5.78;;;5.03;;
7045;SDS011;3564;53.326;10.356;2023-06-22T13:41:12;5.65;;;5.07;;
7045;SDS011;3564;53.326;10.356;2023-06-22T13:43:37;6.07;;;5.15;;
7045;SDS011;3564;53.326;10.356;2023-06-22T13:46:03;6.10;;;5.35;;
7045;SDS011;3564;53.326;10.356;2023-06-22T13:48:29;5.53;;;4.60;;
7045;SDS011;3564;53.326;10.356;2023-06-22T13:51:06;7.88;;;5.15;;
7045;SDS011;3564;53.326;10.356;2023-06-22T13:53:32;5.68;;;5.18;;
7045;SDS011;3564;53.326;10.356;2023-06-22T13:55:57;5.85;;;5.20;;
7045;SDS011;3564;53.326;10.356;2023-06-22T13:58:23;6.07;;;5.47;;
7045;SDS011;3564;53.326;10.356;2023-06-22T14:00:51;5.70;;;5.20;;
7045;SDS011;3564;53.326;10.356;2023-06-22T14:03:17;5.30;;;4.80;;
7045;SDS011;3564;53.326;10.356;2023-06-22T14:05:42;7.20;;;5.30;;
7045;SDS011;3564;53.326;10.356;2023-06-22T14:08:08;5.45;;;4.95;;
7045;SDS011;3564;53.326;10.356;2023-06-22T14:10:34;6.72;;;5.32;;
7045;SDS011;3564;53.326;10.356;2023-06-22T14:13:00;6.43;;;5.07;;
7045;SDS011;3564;53.326;10.356;2023-06-22T14:15:25;5.18;;;4.78;;
7045;SDS011;3564;53.326;10.356;2023-06-22T14:17:54;6.07;;;5.03;;
7045;SDS011;3564;53.326;10.356;2023-06-22T14:20:19;5.47;;;4.65;;
7045;SDS011;3564;53.326;10.356;2023-06-22T14:22:45;11.65;;;5.95;;
7045;SDS011;3564;53.326;10.356;2023-06-22T14:25:16;7.05;;;5.03;;
7045;SDS011;3564;53.326;10.356;2023-06-22T14:27:42;5.60;;;4.90;;
7045;SDS011;3564;53.326;10.356;2023-06-22T14:30:09;7.63;;;5.18;;
7045;SDS011;3564;53.326;10.356;2023-06-22T14:32:35;13.52;;;5.65;;
7045;SDS011;3564;53.326;10.356;2023-06-22T14:35:03;14.20;;;5.75;;
7045;SDS011;3564;53.326;10.356;2023-06-22T14:37:29;9.93;;;5.18;;
7045;SDS011;3564;53.326;10.356;2023-06-22T14:39:54;7.50;;;5.40;;
7045;SDS011;3564;53.326;10.356;2023-06-22T14:42:23;6.13;;;4.95;;
7045;SDS011;3564;53.326;10.356;2023-06-22T14:44:48;5.20;;;4.70;;
7045;SDS011;3564;53.326;10.356;2023-06-22T14:47:14;5.40;;;4.90;;
7045;SDS011;3564;53.326;10.356;2023-06-22T14:49:40;5.05;;;4.55;;
7045;SDS011;3564;53.326;10.356;2023-06-22T14:52:06;6.28;;;5.20;;
7045;SDS011;3564;53.326;10.356;2023-06-22T14:54:31;6.45;;;5.07;;
7045;SDS011;3564;53.326;10.356;2023-06-22T14:56:57;6.50;;;5.03;;
7045;SDS011;3564;53.326;10.356;2023-06-22T14:59:25;5.63;;;5.13;;
7045;SDS011;3564;53.326;10.356;2023-06-22T15:01:51;5.53;;;5.03;;
7045;SDS011;3564;53.326;10.356;2023-06-22T15:04:16;5.95;;;5.45;;
7045;SDS011;3564;53.326;10.356;2023-06-22T15:06:42;6.82;;;4.88;;
7045;SDS011;3564;53.326;10.356;2023-06-22T15:09:09;6.75;;;4.85;;